Time;durP1;ratioP1;P1;durP2;ratioP2;P2;SDS_P1;SDS_P2;PMS_P1;PMS_P2;Temp;Humidity;BMP_temperature;BMP_pressure;BME280_temperature;BME280_humidity;BME280_pressure;Samples;Min_cycle;Max_cycle;Signal;HPM_P1;HPM_P2
2021/08/03 00:01:25;;;;;;;4.88;1.20;;;17.90;93.70;;;;;;5049964;28;20482;-73
2021/08/03 00:03:59;;;;;;;2.40;1.35;;;17.80;94.10;;;;;;5050603;28;20098;-72
2021/08/03 00:06:29;;;;;;;4.40;1.13;;;17.80;94.20;;;;;;5050653;28;20064;-72
2021/08/03 00:08:59;;;;;;;2.10;0.93;;;17.80;93.80;;;;;;5051214;28;20108;-73
2021/08/03 00:11:26;;;;;;;3.00;0.90;;;17.80;94.50;;;;;;5050610;28;20529;-73
2021/08/03 00:13:53;;;;;;;4.43;1.08;;;17.80;94.80;;;;;;5051025;28;20116;-72
2021/08/03 00:16:20;;;;;;;2.55;0.93;;;17.80;94.90;;;;;;5049421;28;20040;-73
2021/08/03 00:18:45;;;;;;;2.05;0.90;;;17.80;94.80;;;;;;5050579;28;20029;-73
2021/08/03 00:21:11;;;;;;;1.63;1.10;;;17.80;95.40;;;;;;5050400;28;20018;-72
2021/08/03 00:23:41;;;;;;;4.63;1.55;;;17.70;95.30;;;;;;5050789;28;20514;-73
2021/08/03 00:26:10;;;;;;;4.97;1.20;;;17.80;95.20;;;;;;5050368;28;20036;-72
2021/08/03 00:28:36;;;;;;;1.52;1.05;;;17.80;95.10;;;;;;5052236;28;20120;-73
2021/08/03 00:31:02;;;;;;;4.55;1.23;;;17.80;95.10;;;;;;5054271;28;20032;-72
2021/08/03 00:33:28;;;;;;;3.33;1.40;;;17.80;95.60;;;;;;5054082;28;20028;-73
2021/08/03 00:35:54;;;;;;;1.75;1.20;;;17.70;95.30;;;;;;5054516;28;20033;-73
2021/08/03 00:38:19;;;;;;;2.70;1.25;;;17.80;95.10;;;;;;5054005;28;20063;-73
2021/08/03 00:40:57;;;;;;;2.47;1.08;;;17.70;95.50;;;;;;5054084;28;20466;-72
2021/08/03 00:43:23;;;;;;;;;;;17.60;96.00;;;;;;5054449;28;20124;-72
2021/08/03 00:45:48;;;;;;;2.78;1.10;;;17.70;95.90;;;;;;5054224;28;20012;-72
2021/08/03 00:48:14;;;;;;;2.65;1.30;;;17.60;95.90;;;;;;5053864;28;20037;-72
2021/08/03 00:50:40;;;;;;;5.35;1.30;;;17.60;96.00;;;;;;5054253;28;20028;-72
2021/08/03 00:53:05;;;;;;;6.10;1.38;;;17.60;96.30;;;;;;5053835;28;20056;-73
2021/08/03 00:55:31;;;;;;;3.50;1.38;;;17.50;96.40;;;;;;5053641;28;20021;-72
2021/08/03 00:57:57;;;;;;;4.63;1.30;;;17.60;96.10;;;;;;5053876;28;20029;-73
2021/08/03 01:00:23;;;;;;;2.97;1.10;;;17.60;96.70;;;;;;5053785;28;20029;-73
2021/08/03 01:02:49;;;;;;;2.72;1.13;;;17.60;96.70;;;;;;5054040;28;20044;-73
2021/08/03 01:05:14;;;;;;;2.97;1.23;;;17.50;97.10;;;;;;5053591;28;20116;-73
2021/08/03 01:07:59;;;;;;;1.45;1.02;;;17.50;96.90;;;;;;5053561;28;20095;-72
2021/08/03 01:10:53;;;;;;;5.05;1.27;;;17.50;97.30;;;;;;5053723;28;20072;-71
2021/08/03 01:13:50;;;;;;;5.18;1.35;;;17.50;96.80;;;;;;5053606;28;20033;-74
2021/08/03 01:16:38;;;;;;;4.30;0.93;;;17.30;96.60;;;;;;5045583;28;20095;-73
2021/08/03 01:19:39;;;;;;;2.80;1.15;;;17.40;96.70;;;;;;5053356;28;20029;-74
2021/08/03 01:22:24;;;;;;;2.38;1.20;;;17.50;96.90;;;;;;5052982;28;20053;-73
2021/08/03 01:24:55;;;;;;;5.97;1.50;;;17.50;96.80;;;;;;5052124;28;20506;-72
2021/08/03 01:27:42;;;;;;;4.07;1.15;;;17.50;97.10;;;;;;5053199;28;20032;-71
2021/08/03 01:30:08;;;;;;;4.50;1.20;;;17.40;96.90;;;;;;5053749;28;20111;-73
2021/08/03 01:32:39;;;;;;;8.63;1.48;;;17.30;96.90;;;;;;5053008;28;20045;-72
2021/08/03 01:35:06;;;;;;;6.38;1.25;;;17.40;97.10;;;;;;5049367;28;20021;-72
2021/08/03 01:37:33;;;;;;;4.60;1.23;;;17.40;96.90;;;;;;5032983;28;20082;-72
2021/08/03 01:40:04;;;;;;;3.03;1.00;;;17.30;96.90;;;;;;5032428;28;20040;-72
2021/08/03 01:42:31;;;;;;;4.65;1.30;;;17.20;97.00;;;;;;5032822;28;20550;-72
2021/08/03 01:44:58;;;;;;;2.13;1.30;;;17.20;97.00;;;;;;5032586;28;20440;-72
2021/08/03 01:47:25;;;;;;;3.00;1.50;;;17.30;97.30;;;;;;5032630;28;20042;-72
2021/08/03 01:49:52;;;;;;;4.20;1.33;;;17.20;97.20;;;;;;5031999;28;20099;-72
2021/08/03 01:52:19;;;;;;;3.53;1.25;;;17.30;97.20;;;;;;5032397;28;20045;-73
2021/08/03 01:54:47;;;;;;;4.88;1.58;;;17.10;97.40;;;;;;5032784;28;20094;-72
2021/08/03 01:57:15;;;;;;;3.20;1.38;;;17.00;97.50;;;;;;5032674;28;20218;-74
2021/08/03 01:59:43;;;;;;;3.30;1.35;;;17.10;97.60;;;;;;5033227;28;20014;-74
2021/08/03 02:02:10;;;;;;;6.25;1.77;;;17.10;97.60;;;;;;5031534;28;20451;-72
2021/08/03 02:04:37;;;;;;;2.38;1.50;;;17.10;97.80;;;;;;5032758;28;20049;-74
2021/08/03 02:07:03;;;;;;;3.70;1.60;;;17.20;97.40;;;;;;5032520;28;20459;-73
2021/08/03 02:09:30;;;;;;;5.90;1.63;;;17.20;97.70;;;;;;5032432;28;20160;-72
2021/08/03 02:11:56;;;;;;;2.45;1.25;;;17.30;97.80;;;;;;5032951;28;20029;-73
2021/08/03 02:14:22;;;;;;;9.30;1.70;;;17.30;98.10;;;;;;5032549;28;20053;-73
2021/08/03 02:16:48;;;;;;;3.40;1.42;;;17.30;97.60;;;;;;5032622;28;20118;-73
2021/08/03 02:19:14;;;;;;;4.20;1.40;;;17.30;98.30;;;;;;5032286;28;20041;-74
2021/08/03 02:21:45;;;;;;;5.38;1.60;;;17.30;97.80;;;;;;5032094;28;20041;-74
2021/08/03 02:24:11;;;;;;;5.47;1.30;;;17.20;97.90;;;;;;5031932;28;20028;-73
2021/08/03 02:26:37;;;;;;;4.28;1.10;;;17.30;97.80;;;;;;5032478;28;20018;-72
2021/08/03 02:29:04;;;;;;;3.85;1.35;;;17.30;97.70;;;;;;5032030;28;20452;-73
2021/08/03 02:31:52;;;;;;;3.97;1.35;;;17.30;97.50;;;;;;5032152;28;20061;-72
2021/08/03 02:34:23;;;;;;;;;;;17.40;97.30;;;;;;5032488;28;20045;-73
2021/08/03 02:36:56;;;;;;;2.80;1.13;;;17.40;97.10;;;;;;5031885;28;19913;-72
2021/08/03 02:39:23;;;;;;;3.40;1.10;;;17.40;97.30;;;;;;5031932;28;20120;-73
2021/08/03 02:41:50;;;;;;;5.50;1.23;;;17.30;97.60;;;;;;5032602;28;20021;-74
2021/08/03 02:44:18;;;;;;;2.88;1.27;;;17.30;97.80;;;;;;5031931;28;20467;-73
2021/08/03 02:46:46;;;;;;;1.98;1.20;;;17.30;97.50;;;;;;5031863;28;20033;-74
2021/08/03 02:49:14;;;;;;;;;;;17.20;97.80;;;;;;5031171;28;20083;-74
2021/08/03 02:51:41;;;;;;;2.40;1.25;;;17.30;97.90;;;;;;5030753;28;19909;-73
2021/08/03 02:54:18;;;;;;;3.80;1.30;;;17.30;98.00;;;;;;5031954;28;20048;-73
2021/08/03 02:56:46;;;;;;;5.87;1.40;;;17.30;97.60;;;;;;5031707;28;20049;-72
2021/08/03 02:59:15;;;;;;;3.75;1.67;;;17.30;97.50;;;;;;5031574;28;20115;-72
2021/08/03 03:01:42;;;;;;;2.22;1.48;;;17.30;97.30;;;;;;5031292;28;20360;-73
2021/08/03 03:04:31;;;;;;;2.80;1.30;;;17.30;97.30;;;;;;5031664;28;20025;-73
2021/08/03 03:07:01;;;;;;;4.32;1.48;;;17.30;97.40;;;;;;5031385;28;20036;-74
2021/08/03 03:09:29;;;;;;;3.22;1.40;;;17.30;97.40;;;;;;5031382;28;20032;-74
2021/08/03 03:11:56;;;;;;;5.20;1.50;;;17.30;97.30;;;;;;5031710;28;20037;-72
2021/08/03 03:14:24;;;;;;;5.90;1.27;;;17.20;97.50;;;;;;5031443;28;20038;-73
2021/08/03 03:16:54;;;;;;;2.72;1.20;;;17.20;97.30;;;;;;5031185;28;20060;-74
2021/08/03 03:19:21;;;;;;;3.65;1.63;;;17.20;97.80;;;;;;5031394;28;20095;-72
2021/08/03 03:21:48;;;;;;;2.78;1.77;;;17.20;97.70;;;;;;5031038;28;20049;-72
2021/08/03 03:24:14;;;;;;;8.52;1.92;;;17.10;97.60;;;;;;5029974;28;20447;-72
2021/08/03 03:26:41;;;;;;;5.75;1.67;;;17.00;97.90;;;;;;5031384;28;20030;-72
2021/08/03 03:29:08;;;;;;;6.30;2.00;;;17.00;98.00;;;;;;5031080;28;20095;-73
2021/08/03 03:31:35;;;;;;;2.28;1.63;;;16.90;97.90;;;;;;5031003;28;20043;-74
2021/08/03 03:34:04;;;;;;;6.15;2.03;;;16.80;98.20;;;;;;5031052;28;20033;-73
2021/08/03 03:36:33;;;;;;;6.72;2.10;;;16.80;98.30;;;;;;5031108;28;20049;-72
2021/08/03 03:39:01;;;;;;;4.88;2.03;;;16.80;98.30;;;;;;5031406;28;20033;-73
2021/08/03 03:41:28;;;;;;;;;;;16.80;98.10;;;;;;5030235;28;20103;-73
2021/08/03 03:43:54;;;;;;;5.25;2.00;;;16.90;98.10;;;;;;5031253;28;19940;-72
2021/08/03 03:46:22;;;;;;;3.85;1.70;;;16.70;98.20;;;;;;5031131;28;20061;-73
2021/08/03 03:49:02;;;;;;;6.00;2.45;;;16.80;98.20;;;;;;5030803;28;20033;-73
2021/08/03 03:51:30;;;;;;;7.13;2.10;;;16.70;98.20;;;;;;5030963;28;20037;-73
2021/08/03 03:54:02;;;;;;;3.78;1.70;;;16.80;98.30;;;;;;5031518;28;20018;-72
2021/08/03 03:56:42;;;;;;;9.95;2.40;;;16.80;98.20;;;;;;5030855;28;20044;-75
2021/08/03 03:59:10;;;;;;;6.70;2.00;;;16.90;98.20;;;;;;5030730;28;20030;-73
2021/08/03 04:01:38;;;;;;;3.05;1.90;;;16.90;98.10;;;;;;5030853;28;20034;-72
2021/08/03 04:04:10;;;;;;;4.85;2.08;;;16.90;98.20;;;;;;5033436;28;20033;-73
2021/08/03 04:06:36;;;;;;;2.95;1.70;;;16.90;98.50;;;;;;5034629;28;20026;-73
2021/08/03 04:09:02;;;;;;;4.50;2.00;;;16.90;98.80;;;;;;5034385;28;20132;-73
2021/08/03 04:11:28;;;;;;;2.97;1.85;;;16.90;98.80;;;;;;5034862;28;20499;-72
2021/08/03 04:13:56;;;;;;;3.33;1.98;;;16.90;98.90;;;;;;5034636;28;20034;-72
2021/08/03 04:16:21;;;;;;;6.18;2.30;;;16.90;98.80;;;;;;5034694;28;20374;-73
2021/08/03 04:18:47;;;;;;;6.43;1.95;;;16.90;99.00;;;;;;5034429;28;20037;-74
2021/08/03 04:21:13;;;;;;;9.15;2.40;;;16.90;99.10;;;;;;5034285;28;20028;-73
2021/08/03 04:23:39;;;;;;;4.50;2.00;;;16.90;99.10;;;;;;5035154;28;20050;-72
2021/08/03 04:26:04;;;;;;;5.05;2.00;;;16.90;99.10;;;;;;5034290;28;20465;-73
2021/08/03 04:28:30;;;;;;;2.53;1.83;;;16.90;98.90;;;;;;5034211;28;20064;-73
2021/08/03 04:30:59;;;;;;;5.18;2.08;;;16.90;98.90;;;;;;5034496;28;20034;-73
2021/08/03 04:33:25;;;;;;;6.05;2.50;;;16.90;99.00;;;;;;5034228;28;20017;-72
2021/08/03 04:35:50;;;;;;;5.38;2.03;;;16.90;98.80;;;;;;5034661;28;20358;-73
2021/08/03 04:38:16;;;;;;;6.35;1.90;;;16.90;98.60;;;;;;5034083;28;20033;-73
2021/08/03 04:40:42;;;;;;;5.35;2.22;;;17.00;98.50;;;;;;5034005;28;20025;-73
2021/08/03 04:43:07;;;;;;;4.93;1.85;;;17.00;98.70;;;;;;5034448;28;20022;-73
2021/08/03 04:45:33;;;;;;;4.40;2.00;;;17.00;98.50;;;;;;5034083;28;20025;-74
2021/08/03 04:47:58;;;;;;;3.85;2.42;;;17.00;98.90;;;;;;5034514;28;20331;-74
2021/08/03 04:50:29;;;;;;;5.45;2.10;;;17.00;98.80;;;;;;5033856;28;20054;-73
2021/08/03 04:52:55;;;;;;;4.97;2.00;;;17.00;98.50;;;;;;5033591;28;20041;-73
2021/08/03 04:55:22;;;;;;;2.97;1.80;;;17.00;98.60;;;;;;5033707;28;20098;-72
2021/08/03 04:57:48;;;;;;;2.92;2.10;;;17.10;98.50;;;;;;5033812;28;20115;-73
2021/08/03 05:00:16;;;;;;;6.30;2.25;;;17.00;98.40;;;;;;5033653;28;20026;-72
2021/08/03 05:02:42;;;;;;;5.78;2.35;;;17.00;98.70;;;;;;5033938;28;20094;-73
2021/08/03 05:05:09;;;;;;;8.75;2.53;;;17.00;98.30;;;;;;5032552;28;20026;-73
2021/08/03 05:07:35;;;;;;;3.47;1.80;;;17.10;98.20;;;;;;5033545;28;20059;-74
2021/08/03 05:10:05;;;;;;;4.40;2.33;;;17.10;98.40;;;;;;5033450;28;20376;-73
2021/08/03 05:12:32;;;;;;;4.68;2.00;;;17.10;98.30;;;;;;5033589;28;20033;-73
2021/08/03 05:15:00;;;;;;;5.65;2.33;;;17.10;98.30;;;;;;5032039;28;20455;-73
2021/08/03 05:17:30;;;;;;;4.63;2.13;;;17.10;98.30;;;;;;5033380;28;20041;-73
2021/08/03 05:19:55;;;;;;;5.07;2.50;;;17.10;98.40;;;;;;5033334;28;20033;-72
2021/08/03 05:22:21;;;;;;;2.08;1.83;;;17.00;98.70;;;;;;5033134;28;20068;-72
2021/08/03 05:24:47;;;;;;;4.55;2.90;;;17.10;98.80;;;;;;5033149;28;20045;-73
2021/08/03 05:27:12;;;;;;;5.30;2.13;;;17.10;98.80;;;;;;5033237;28;20484;-72
2021/08/03 05:29:38;;;;;;;5.45;2.40;;;16.90;98.80;;;;;;5032374;28;20037;-73
2021/08/03 05:32:03;;;;;;;10.90;2.83;;;16.90;98.70;;;;;;5033157;28;20849;-72
2021/08/03 05:34:29;;;;;;;9.65;3.03;;;17.00;98.90;;;;;;5031844;28;20521;-72
2021/08/03 05:36:55;;;;;;;6.97;3.17;;;17.10;98.50;;;;;;5033025;28;20033;-73
2021/08/03 05:39:20;;;;;;;5.38;3.03;;;17.00;98.50;;;;;;5032782;28;20045;-75
2021/08/03 05:41:46;;;;;;;9.90;2.70;;;17.00;98.50;;;;;;5033527;28;20028;-73
2021/08/03 05:44:12;;;;;;;6.18;3.40;;;16.90;98.50;;;;;;5032961;28;20037;-73
2021/08/03 05:46:37;;;;;;;8.45;3.25;;;17.00;98.70;;;;;;5031727;28;20053;-73
2021/08/03 05:49:03;;;;;;;6.43;2.78;;;17.10;98.50;;;;;;5031699;28;20037;-73
2021/08/03 05:51:29;;;;;;;6.00;3.00;;;17.20;98.40;;;;;;5032838;28;20395;-74
2021/08/03 05:53:54;;;;;;;9.07;3.00;;;17.20;98.50;;;;;;5032825;28;20112;-73
2021/08/03 05:56:20;;;;;;;6.95;3.75;;;17.30;98.40;;;;;;5032679;28;20034;-73
2021/08/03 05:58:46;;;;;;;11.25;3.15;;;17.30;98.20;;;;;;5032683;28;20083;-74
2021/08/03 06:01:11;;;;;;;4.15;2.53;;;17.30;98.20;;;;;;5032709;28;20033;-74
2021/08/03 06:03:37;;;;;;;6.22;2.92;;;17.30;98.10;;;;;;5032538;28;20451;-74
2021/08/03 06:06:06;;;;;;;7.97;2.97;;;17.40;98.10;;;;;;5032980;28;20025;-73
2021/08/03 06:08:34;;;;;;;6.82;2.60;;;17.40;97.80;;;;;;5032470;28;20071;-72
2021/08/03 06:11:02;;;;;;;6.47;2.55;;;17.40;97.70;;;;;;5032474;28;20037;-75
2021/08/03 06:13:29;;;;;;;5.13;2.25;;;17.50;97.60;;;;;;5032565;28;20539;-73
2021/08/03 06:15:59;;;;;;;5.00;2.35;;;17.50;97.50;;;;;;5032335;28;20040;-72
2021/08/03 06:18:38;;;;;;;7.60;2.10;;;17.60;97.40;;;;;;5031398;28;20029;-73
2021/08/03 06:21:05;;;;;;;3.60;2.45;;;17.70;97.30;;;;;;5032629;28;20162;-74
2021/08/03 06:23:31;;;;;;;8.65;2.45;;;17.70;97.10;;;;;;5031971;28;20494;-74
2021/08/03 06:26:00;;;;;;;3.53;2.00;;;17.80;97.10;;;;;;5031998;28;20055;-73
2021/08/03 06:28:25;;;;;;;8.25;2.47;;;17.90;96.90;;;;;;5031954;28;20053;-74
2021/08/03 06:30:52;;;;;;;11.40;2.45;;;17.90;97.00;;;;;;5032047;28;20118;-74
2021/08/03 06:33:19;;;;;;;6.43;2.17;;;17.90;97.00;;;;;;5031891;28;20018;-75
2021/08/03 06:35:46;;;;;;;;;;;18.00;96.90;;;;;;5032823;28;20045;-74
2021/08/03 06:38:12;;;;;;;6.30;3.22;;;18.00;96.20;;;;;;5032041;28;19921;-73
2021/08/03 06:40:46;;;;;;;4.63;1.75;;;18.00;95.90;;;;;;5031699;28;20112;-74
2021/08/03 06:43:23;;;;;;;4.13;1.63;;;18.00;95.90;;;;;;5031931;28;20127;-74
2021/08/03 06:46:00;;;;;;;7.45;1.98;;;18.10;95.90;;;;;;5030983;28;20473;-73
2021/08/03 06:48:32;;;;;;;5.22;1.80;;;18.10;95.80;;;;;;5031663;28;20362;-73
2021/08/03 06:51:04;;;;;;;7.45;2.85;;;18.10;95.50;;;;;;5032246;28;20041;-74
2021/08/03 06:53:31;;;;;;;5.15;2.05;;;18.10;95.80;;;;;;5031598;28;20029;-72
2021/08/03 06:56:02;;;;;;;5.80;2.13;;;18.10;95.80;;;;;;5031420;28;20022;-73
2021/08/03 06:58:38;;;;;;;5.57;2.20;;;18.20;96.10;;;;;;5031799;28;20038;-74
2021/08/03 07:01:05;;;;;;;8.73;2.15;;;18.20;95.90;;;;;;5031352;28;20033;-74
2021/08/03 07:03:42;;;;;;;3.58;1.45;;;18.20;95.70;;;;;;5031404;28;20037;-73
2021/08/03 07:06:10;;;;;;;6.32;1.98;;;18.20;95.10;;;;;;5031759;28;20045;-72
2021/08/03 07:08:39;;;;;;;4.88;1.30;;;18.20;95.10;;;;;;5031361;28;20113;-74
2021/08/03 07:11:06;;;;;;;4.35;1.67;;;18.30;95.00;;;;;;5031190;28;20133;-73
2021/08/03 07:13:33;;;;;;;2.40;1.30;;;18.30;94.60;;;;;;5031293;28;20033;-74
2021/08/03 07:16:02;;;;;;;1.48;1.13;;;18.40;94.60;;;;;;5031432;28;20456;-73
2021/08/03 07:18:29;;;;;;;6.07;1.45;;;18.50;94.30;;;;;;5030987;28;20079;-72
2021/08/03 07:20:55;;;;;;;3.05;1.20;;;18.50;94.00;;;;;;5030224;28;20442;-74
2021/08/03 07:23:22;;;;;;;7.22;1.30;;;18.50;93.60;;;;;;5030681;28;20041;-73
2021/08/03 07:25:52;;;;;;;3.47;1.95;;;18.60;93.80;;;;;;5030812;28;20087;-73
2021/08/03 07:28:21;;;;;;;6.43;1.58;;;18.60;93.70;;;;;;5030907;28;20060;-73
2021/08/03 07:30:47;;;;;;;3.65;0.95;;;18.60;93.20;;;;;;5031043;28;20026;-74
2021/08/03 07:33:14;;;;;;;4.68;1.00;;;18.70;93.10;;;;;;5030647;28;20026;-74
2021/08/03 07:35:42;;;;;;;3.00;1.20;;;18.80;92.90;;;;;;5030409;28;20091;-73
2021/08/03 07:38:08;;;;;;;2.72;1.10;;;18.80;92.30;;;;;;5030115;28;20033;-73
2021/08/03 07:40:33;;;;;;;5.53;1.30;;;18.80;92.10;;;;;;5029722;28;20525;-73
2021/08/03 07:42:59;;;;;;;4.18;1.10;;;18.90;92.60;;;;;;5030679;28;20037;-73
2021/08/03 07:45:25;;;;;;;4.72;1.27;;;19.00;92.40;;;;;;5030735;28;20025;-73
2021/08/03 07:47:51;;;;;;;3.10;1.30;;;19.10;92.40;;;;;;5031281;28;20345;-73
2021/08/03 07:50:16;;;;;;;3.55;1.38;;;19.20;92.40;;;;;;5030463;28;20336;-73
2021/08/03 07:52:42;;;;;;;3.00;1.70;;;19.40;92.40;;;;;;5030684;28;20030;-73
2021/08/03 07:55:08;;;;;;;3.53;1.48;;;19.60;92.10;;;;;;5030662;28;20029;-73
2021/08/03 07:57:33;;;;;;;7.10;1.65;;;19.60;92.10;;;;;;5030518;28;20541;-71
2021/08/03 07:59:59;;;;;;;3.72;1.20;;;19.80;91.80;;;;;;5030981;28;20451;-71
2021/08/03 08:02:25;;;;;;;2.47;1.13;;;19.90;91.60;;;;;;5030594;28;20029;-71
2021/08/03 08:04:51;;;;;;;2.95;1.20;;;20.00;91.40;;;;;;5030678;28;20033;-74
2021/08/03 08:07:16;;;;;;;3.72;1.60;;;20.00;91.40;;;;;;5030767;28;20594;-75
2021/08/03 08:09:42;;;;;;;4.78;1.20;;;20.30;91.60;;;;;;5030496;28;20503;-73
2021/08/03 08:12:07;;;;;;;2.35;1.05;;;20.30;90.50;;;;;;5030885;28;20033;-73
2021/08/03 08:14:34;;;;;;;4.75;0.90;;;20.40;90.20;;;;;;5029573;28;20044;-73
2021/08/03 08:17:01;;;;;;;4.75;1.00;;;20.50;90.10;;;;;;5030386;28;20068;-75
2021/08/03 08:19:27;;;;;;;6.53;1.10;;;20.70;89.20;;;;;;5030623;28;20057;-73
2021/08/03 08:21:52;;;;;;;6.05;1.33;;;21.10;88.80;;;;;;5029503;28;20554;-72
2021/08/03 08:24:18;;;;;;;3.60;1.75;;;21.90;89.30;;;;;;5030460;28;20046;-72
2021/08/03 08:26:45;;;;;;;3.78;1.15;;;22.80;85.60;;;;;;5030703;28;20124;-72
2021/08/03 08:29:11;;;;;;;3.38;1.02;;;23.60;84.30;;;;;;5030493;28;20125;-74
2021/08/03 08:31:38;;;;;;;4.47;1.05;;;24.20;81.90;;;;;;5030311;28;20471;-72
2021/08/03 08:34:04;;;;;;;5.15;1.05;;;25.00;81.10;;;;;;5030386;28;20033;-72
2021/08/03 08:36:29;;;;;;;5.80;1.40;;;25.90;78.30;;;;;;5030126;28;20367;-73
2021/08/03 08:38:55;;;;;;;2.53;0.98;;;26.40;75.80;;;;;;5030677;28;20039;-72
2021/08/03 08:41:21;;;;;;;3.83;0.95;;;26.70;74.50;;;;;;5029132;28;20030;-74
2021/08/03 08:43:47;;;;;;;6.82;1.50;;;26.80;71.80;;;;;;5030255;28;20052;-73
2021/08/03 08:46:13;;;;;;;4.53;1.15;;;25.20;73.10;;;;;;5030168;28;20466;-73
2021/08/03 08:48:39;;;;;;;4.97;1.65;;;25.70;77.10;;;;;;5030433;28;20463;-72
2021/08/03 08:51:06;;;;;;;5.65;1.58;;;25.70;74.10;;;;;;5034493;28;20473;-72
2021/08/03 08:53:34;;;;;;;3.15;1.50;;;24.60;75.40;;;;;;5033746;28;20028;-73
2021/08/03 08:56:03;;;;;;;3.97;1.33;;;24.50;75.90;;;;;;5033548;28;20124;-73
2021/08/03 08:58:37;;;;;;;2.90;1.40;;;23.80;76.70;;;;;;5033548;28;20341;-74
2021/08/03 09:01:03;;;;;;;4.30;1.38;;;23.70;77.80;;;;;;5033636;28;20029;-73
2021/08/03 09:03:28;;;;;;;5.38;1.88;;;23.60;77.70;;;;;;5033799;28;20112;-73
2021/08/03 09:06:02;;;;;;;3.83;1.95;;;23.50;77.10;;;;;;5034281;28;20108;-73
2021/08/03 09:08:43;;;;;;;4.75;2.15;;;23.30;77.80;;;;;;5033453;28;20030;-72
2021/08/03 09:11:11;;;;;;;2.78;1.65;;;22.90;78.50;;;;;;5033560;28;20136;-72
2021/08/03 09:13:50;;;;;;;;;;;22.40;78.50;;;;;;5033857;28;20069;-72
2021/08/03 09:16:16;;;;;;;5.15;1.80;;;21.80;79.90;;;;;;5033182;28;20019;-73
2021/08/03 09:18:43;;;;;;;4.07;1.70;;;21.80;80.40;;;;;;5033102;28;20344;-72
2021/08/03 09:21:29;;;;;;;3.25;1.73;;;21.70;80.80;;;;;;5033362;28;20087;-71
2021/08/03 09:23:58;;;;;;;5.18;1.77;;;21.80;81.20;;;;;;5033308;28;20144;-72
2021/08/03 09:26:43;;;;;;;4.25;2.13;;;21.90;81.00;;;;;;5032316;28;20034;-72
2021/08/03 09:29:11;;;;;;;6.38;1.90;;;22.50;81.20;;;;;;5033009;28;20309;-72
2021/08/03 09:31:38;;;;;;;3.97;1.80;;;23.00;79.50;;;;;;5032741;28;20041;-73
2021/08/03 09:34:12;;;;;;;1.80;1.67;;;23.30;78.70;;;;;;5032902;28;20644;-72
2021/08/03 09:36:59;;;;;;;5.60;2.10;;;23.40;78.30;;;;;;5032888;28;20025;-72
2021/08/03 09:39:43;;;;;;;3.42;1.70;;;24.60;76.90;;;;;;5032826;28;20017;-73
2021/08/03 09:42:19;;;;;;;6.05;1.30;;;25.20;74.60;;;;;;5032984;28;20048;-74
2021/08/03 09:44:58;;;;;;;5.47;2.40;;;25.70;72.30;;;;;;5032728;28;20041;-72
2021/08/03 09:47:25;;;;;;;3.10;1.20;;;25.70;69.70;;;;;;5032711;28;20433;-73
2021/08/03 09:49:57;;;;;;;3.40;1.05;;;25.60;70.00;;;;;;5032423;28;20109;-72
2021/08/03 09:52:25;;;;;;;2.60;1.20;;;25.10;69.20;;;;;;5032619;28;20452;-72
2021/08/03 09:55:06;;;;;;;2.05;1.17;;;24.80;70.10;;;;;;5032534;28;20114;-73
2021/08/03 09:57:32;;;;;;;5.15;1.40;;;24.50;71.70;;;;;;5032247;28;20083;-73
2021/08/03 09:59:57;;;;;;;4.82;3.22;;;24.70;72.10;;;;;;5033050;28;20021;-73
2021/08/03 10:02:25;;;;;;;2.65;1.75;;;24.90;72.10;;;;;;5031766;28;20038;-73
2021/08/03 10:04:52;;;;;;;;;;;24.90;71.80;;;;;;5032949;28;20098;-72
2021/08/03 10:07:18;;;;;;;1.70;1.10;;;24.90;71.60;;;;;;5032495;28;19909;-73
2021/08/03 10:09:45;;;;;;;3.28;1.00;;;24.60;71.70;;;;;;5032168;28;20045;-73
2021/08/03 10:12:12;;;;;;;4.27;1.47;;;24.80;72.20;;;;;;5032124;28;20024;-73
2021/08/03 10:14:38;;;;;;;2.47;1.15;;;24.60;71.50;;;;;;5032433;28;20026;-72
2021/08/03 10:17:04;;;;;;;2.38;0.77;;;24.60;72.30;;;;;;5031938;28;20418;-73
2021/08/03 10:19:38;;;;;;;3.80;1.23;;;24.70;71.50;;;;;;5031005;28;20037;-74
2021/08/03 10:22:27;;;;;;;6.03;1.52;;;24.90;70.80;;;;;;5031683;28;20046;-73
2021/08/03 10:25:13;;;;;;;4.45;1.30;;;24.70;70.00;;;;;;5031854;28;20034;-74
2021/08/03 10:27:40;;;;;;;4.70;1.40;;;24.60;69.90;;;;;;5031824;28;20356;-73
2021/08/03 10:30:07;;;;;;;2.42;1.15;;;24.50;70.70;;;;;;5032338;28;20108;-73
2021/08/03 10:32:41;;;;;;;1.57;1.03;;;24.60;70.00;;;;;;5032071;28;20025;-73
2021/08/03 10:35:18;;;;;;;4.18;1.58;;;24.40;70.40;;;;;;5031796;28;20067;-75
2021/08/03 10:38:02;;;;;;;9.40;6.45;;;24.50;70.40;;;;;;5031935;28;20025;-73
2021/08/03 10:40:49;;;;;;;2.80;1.23;;;24.50;70.00;;;;;;5031293;28;20036;-72
2021/08/03 10:43:33;;;;;;;1.50;1.10;;;24.40;69.50;;;;;;5031509;28;20148;-73
2021/08/03 10:46:07;;;;;;;2.58;1.00;;;24.20;68.80;;;;;;5031660;28;20155;-73
2021/08/03 10:48:39;;;;;;;3.83;0.90;;;24.20;68.30;;;;;;5031506;28;20025;-73
2021/08/03 10:51:26;;;;;;;1.42;0.80;;;23.90;68.70;;;;;;5031976;28;20021;-73
2021/08/03 10:54:08;;;;;;;2.92;1.08;;;24.00;70.30;;;;;;5027746;28;20068;-74
2021/08/03 10:56:52;;;;;;;1.88;1.00;;;24.20;70.00;;;;;;5031346;28;20030;-73
2021/08/03 10:59:38;;;;;;;3.67;1.58;;;24.40;70.30;;;;;;5030878;28;20063;-73
2021/08/03 11:02:38;;;;;;;3.35;1.25;;;24.60;70.30;;;;;;5031810;28;20026;-73
2021/08/03 11:05:04;;;;;;;4.60;2.05;;;24.90;69.00;;;;;;5010786;28;20120;-71
2021/08/03 11:07:34;;;;;;;4.22;2.17;;;24.70;69.80;;;;;;5021419;28;20125;-73
2021/08/03 11:10:09;;;;;;;5.10;1.30;;;24.80;68.70;;;;;;5029971;28;20045;-73
2021/08/03 11:12:39;;;;;;;4.25;1.15;;;24.80;68.40;;;;;;5030085;28;20420;-73
2021/08/03 11:15:22;;;;;;;3.85;1.05;;;25.00;68.80;;;;;;5031523;28;20056;-73
2021/08/03 11:18:02;;;;;;;3.65;1.23;;;25.10;67.60;;;;;;5031005;28;20029;-74
2021/08/03 11:20:37;;;;;;;3.47;1.20;;;25.10;66.80;;;;;;5029823;28;20033;-72
2021/08/03 11:23:14;;;;;;;4.00;1.33;;;25.00;66.50;;;;;;5030939;28;20053;-74
2021/08/03 11:25:49;;;;;;;5.20;1.27;;;24.90;65.20;;;;;;5030931;28;20122;-73
2021/08/03 11:28:16;;;;;;;2.80;0.90;;;24.90;65.30;;;;;;5030768;28;20037;-73
2021/08/03 11:30:45;;;;;;;4.68;1.25;;;24.90;65.80;;;;;;5030628;28;20412;-73
2021/08/03 11:33:12;;;;;;;5.43;1.27;;;24.90;66.70;;;;;;5030715;28;20022;-74
2021/08/03 11:35:38;;;;;;;2.55;1.17;;;25.00;64.60;;;;;;5031083;28;20067;-73
2021/08/03 11:38:06;;;;;;;4.07;1.13;;;25.00;65.00;;;;;;5030561;28;20113;-72
2021/08/03 11:40:32;;;;;;;2.75;0.90;;;24.80;65.20;;;;;;5030844;28;20037;-73
2021/08/03 11:42:59;;;;;;;2.78;0.88;;;24.80;66.00;;;;;;5029447;28;20178;-73
2021/08/03 11:45:25;;;;;;;5.22;1.17;;;24.70;66.50;;;;;;5029603;28;20037;-74
2021/08/03 11:47:54;;;;;;;3.33;1.20;;;24.60;64.90;;;;;;5031112;28;20075;-73
2021/08/03 11:50:37;;;;;;;5.28;1.10;;;24.50;65.60;;;;;;5030676;28;20037;-73
2021/08/03 11:53:10;;;;;;;1.33;0.90;;;24.30;66.20;;;;;;5030544;28;20022;-73
2021/08/03 11:55:38;;;;;;;8.35;4.88;;;24.20;67.10;;;;;;5030284;28;20026;-72
2021/08/03 11:58:05;;;;;;;;;;;24.10;66.80;;;;;;5030912;28;20034;-72
2021/08/03 12:00:31;;;;;;;2.13;1.40;;;24.20;67.20;;;;;;5030843;28;19924;-72
2021/08/03 12:02:58;;;;;;;2.22;1.65;;;24.10;66.60;;;;;;5030903;28;20033;-73
2021/08/03 12:05:32;;;;;;;5.87;2.23;;;24.10;66.00;;;;;;5030460;28;20026;-73
2021/08/03 12:08:03;;;;;;;7.30;2.40;;;24.00;66.10;;;;;;5030257;28;20021;-74
2021/08/03 12:10:39;;;;;;;5.03;1.35;;;24.00;66.10;;;;;;5030126;28;20030;-73
2021/08/03 12:13:07;;;;;;;3.13;1.33;;;24.00;66.40;;;;;;5030079;28;20049;-73
2021/08/03 12:15:45;;;;;;;2.35;1.30;;;23.90;66.30;;;;;;5029959;28;20033;-72
2021/08/03 12:18:10;;;;;;;3.38;1.05;;;24.00;66.30;;;;;;5030278;28;20025;-73
2021/08/03 12:20:39;;;;;;;2.75;1.40;;;23.80;65.70;;;;;;5030840;28;20101;-73
2021/08/03 12:23:14;;;;;;;4.97;1.67;;;23.50;66.20;;;;;;5030175;28;20041;-72
2021/08/03 12:25:53;;;;;;;3.97;2.08;;;23.60;66.90;;;;;;5033881;28;20049;-72
2021/08/03 12:28:51;;;;;;;4.03;1.30;;;23.60;66.90;;;;;;5034152;28;20459;-73
2021/08/03 12:31:18;;;;;;;9.27;2.13;;;23.70;67.70;;;;;;5034335;28;20045;-73
2021/08/03 12:33:44;;;;;;;3.10;1.60;;;23.70;67.50;;;;;;5033874;28;20029;-72
2021/08/03 12:36:15;;;;;;;4.28;1.20;;;23.70;67.50;;;;;;5034061;28;20025;-73
2021/08/03 12:38:41;;;;;;;3.83;1.20;;;23.80;67.70;;;;;;5034360;28;20064;-72
2021/08/03 12:41:15;;;;;;;4.13;1.10;;;23.80;67.30;;;;;;5033970;28;20049;-72
2021/08/03 12:43:41;;;;;;;4.43;1.48;;;23.70;67.90;;;;;;5033881;28;20021;-72
2021/08/03 12:46:07;;;;;;;2.35;1.05;;;23.50;68.30;;;;;;5033989;28;20088;-74
2021/08/03 12:48:33;;;;;;;4.25;1.20;;;23.60;68.80;;;;;;5033657;28;20053;-72
2021/08/03 12:51:01;;;;;;;1.77;1.00;;;23.40;69.30;;;;;;5034271;28;20025;-72
2021/08/03 12:53:29;;;;;;;5.70;1.25;;;23.40;69.00;;;;;;5032633;28;20075;-73
2021/08/03 12:55:58;;;;;;;;;;;23.40;69.10;;;;;;5033150;28;20048;-72
2021/08/03 12:58:42;;;;;;;1.38;0.90;;;23.40;68.80;;;;;;5033592;28;19920;-73
2021/08/03 13:01:15;;;;;;;2.35;1.30;;;23.40;69.20;;;;;;5033660;28;20503;-73